Terminal Aerodrome Forecast
Issued by NWS

Home | Current Version | Previous Version | Text Only | Print | Product List | Glossary On
Versions: 1 2 3 4 5 6 7 8 9 10 11 12 13 14 15 16 17 18 19
000
FTUS45 KSLC 280211 AAA
TAFOGD
TAF AMD
KOGD 280211Z 2802/2824 33009KT P6SM FEW090 SCT120
     FM280400 17006KT P6SM FEW120 SCT200
     FM281700 29006KT P6SM FEW090=

USA.gov is the U.S. government's official web portal to all federal, state and local government web resources and services.